createdAt,value
2023-02-11T00:05:05.265Z,72.14
2023-02-11T00:10:09.577Z,73.01
2023-02-11T00:15:13.342Z,72.39
2023-02-11T00:20:18.327Z,72.68
2023-02-11T00:25:22.015Z,73.01
2023-02-11T00:30:25.729Z,73.08
2023-02-11T00:35:31.810Z,73.15
2023-02-11T00:40:35.163Z,72.94
2023-02-11T00:45:40.228Z,73.37
2023-02-11T00:50:45.342Z,73.15
2023-02-11T00:55:48.918Z,73.47
2023-02-11T01:00:53.780Z,72.76
2023-02-11T01:05:58.561Z,73.30
2023-02-11T01:11:05.893Z,73.05
2023-02-11T01:16:12.203Z,73.66
2023-02-11T01:21:17.052Z,73.15
2023-02-11T01:26:20.514Z,72.97
2023-02-11T01:31:24.940Z,73.04
2023-02-11T01:36:30.544Z,73.00
2023-02-11T01:41:37.791Z,73.24
2023-02-11T01:46:41.175Z,73.54
2023-02-11T01:51:51.017Z,73.48
2023-02-11T01:57:11.243Z,73.65
2023-02-11T02:02:19.252Z,73.59
2023-02-11T02:07:34.169Z,73.44
2023-02-11T02:12:37.570Z,73.72
2023-02-11T02:17:55.610Z,74.08
2023-02-11T02:23:27.592Z,73.71
2023-02-11T02:28:46.945Z,73.84
2023-02-11T02:33:56.765Z,72.85
2023-02-11T02:39:09.813Z,72.98
2023-02-11T02:44:13.362Z,73.56
2023-02-11T02:49:18.825Z,72.85
2023-02-11T02:54:46.154Z,73.34
2023-02-11T03:00:04.401Z,73.69
2023-02-11T03:05:17.648Z,74.07
2023-02-11T03:10:26.378Z,73.89
2023-02-11T03:15:34.176Z,74.34
2023-02-11T03:20:43.121Z,74.21
2023-02-11T03:25:51.919Z,74.04
2023-02-11T03:31:01.998Z,73.94
2023-02-11T03:36:12.180Z,73.59
2023-02-11T03:41:17.584Z,73.90
2023-02-11T03:46:24.623Z,74.71
2023-02-11T03:51:32.763Z,74.17
2023-02-11T03:56:43.445Z,74.10
2023-02-11T04:01:46.874Z,74.04
2023-02-11T04:07:16.567Z,74.38
2023-02-11T04:12:20.191Z,74.04
2023-02-11T04:17:23.551Z,73.83
2023-02-11T04:22:28.405Z,73.50
2023-02-11T04:27:32.596Z,73.93
2023-02-11T04:32:36.223Z,73.81
2023-02-11T04:37:41.031Z,74.11
2023-02-11T04:42:44.418Z,73.64
2023-02-11T04:47:49.085Z,73.77
2023-02-11T04:52:54.307Z,73.62
2023-02-11T04:58:00.779Z,73.40
2023-02-11T05:03:04.165Z,73.44
2023-02-11T05:08:11.100Z,73.88
2023-02-11T05:13:14.812Z,74.03
2023-02-11T05:18:18.459Z,74.22
2023-02-11T05:23:25.963Z,74.34
2023-02-11T05:28:30.166Z,73.94
2023-02-11T05:33:33.653Z,73.76
2023-02-11T05:38:39.389Z,73.07
2023-02-11T05:43:42.796Z,72.96
2023-02-11T05:48:48.354Z,73.42
2023-02-11T05:53:54.452Z,73.42
2023-02-11T05:59:00.664Z,73.13
2023-02-11T06:04:04.442Z,72.55
2023-02-11T06:09:10.432Z,71.96
2023-02-11T06:14:14.465Z,71.95
2023-02-11T06:19:18.091Z,70.60
2023-02-11T06:24:47.856Z,69.74
2023-02-11T06:29:46.761Z,69.51
2023-02-11T06:34:53.112Z,70.04
2023-02-11T06:39:57.927Z,69.64
2023-02-11T06:45:01.663Z,68.99
2023-02-11T06:50:09.047Z,68.89
2023-02-11T06:55:15.315Z,68.64
2023-02-11T07:00:19.570Z,68.71
2023-02-11T07:05:22.922Z,68.52
2023-02-11T07:10:27.664Z,68.75
2023-02-11T07:15:31.519Z,68.56
2023-02-11T07:20:35.140Z,69.07
2023-02-11T07:25:40.297Z,68.92
2023-02-11T07:30:43.827Z,68.68
2023-02-11T07:35:47.466Z,68.88
2023-02-11T07:40:52.225Z,68.65
2023-02-11T07:45:57.334Z,68.80
2023-02-11T07:51:07.558Z,68.54
2023-02-11T07:56:14.078Z,67.84
2023-02-11T08:01:22.595Z,68.58
2023-02-11T08:06:27.705Z,67.58
2023-02-11T08:11:33.017Z,67.53
2023-02-11T08:16:39.007Z,68.69
2023-02-11T08:21:43.373Z,67.77
2023-02-11T08:26:50.754Z,68.08
2023-02-11T08:31:54.147Z,66.07
2023-02-11T08:36:57.565Z,66.03
2023-02-11T08:42:02.478Z,65.38
2023-02-11T08:47:08.436Z,65.08
2023-02-11T08:52:11.793Z,64.07
2023-02-11T08:57:16.654Z,63.18
2023-02-11T09:02:20.425Z,63.66
2023-02-11T09:07:24.235Z,63.29
2023-02-11T09:12:29.069Z,61.30
2023-02-11T09:17:32.541Z,61.04
2023-02-11T09:22:36.389Z,60.11
2023-02-11T09:27:41.196Z,60.52
2023-02-11T09:32:45.816Z,59.96
2023-02-11T09:37:49.176Z,58.20
2023-02-11T09:43:03.083Z,58.08
2023-02-11T09:48:14.877Z,57.21
2023-02-11T09:53:27.104Z,57.06
2023-02-11T09:58:35.796Z,57.35
2023-02-11T10:04:05.562Z,57.26
2023-02-11T10:09:24.660Z,55.53
2023-02-11T10:14:51.989Z,55.44
2023-02-11T10:20:10.415Z,55.44
2023-02-11T10:25:24.953Z,54.43
2023-02-11T10:30:35.492Z,53.85
2023-02-11T10:35:40.381Z,51.96
2023-02-11T10:40:44.161Z,53.11
2023-02-11T10:45:53.506Z,51.72
2023-02-11T10:51:09.444Z,51.42
2023-02-11T10:56:15.750Z,52.61
2023-02-11T11:01:24.775Z,51.90
2023-02-11T11:06:33.598Z,50.53
2023-02-11T11:11:53.390Z,49.77
2023-02-11T11:16:58.432Z,50.51
2023-02-11T11:22:02.319Z,49.43
2023-02-11T11:27:07.457Z,48.37
2023-02-11T11:32:21.664Z,48.22
2023-02-11T11:37:28.087Z,47.79
2023-02-11T11:42:33.362Z,48.65
2023-02-11T11:47:46.403Z,46.95
2023-02-11T11:52:57.977Z,48.49
2023-02-11T11:58:01.540Z,47.40
2023-02-11T12:03:37.950Z,49.38
2023-02-11T12:08:54.336Z,48.79
2023-02-11T12:14:11.683Z,48.10
2023-02-11T12:19:39.783Z,48.82
2023-02-11T12:24:57.942Z,49.23
2023-02-11T12:30:10.510Z,48.60
2023-02-11T12:35:39.313Z,50.21
2023-02-11T12:40:48.899Z,48.21
2023-02-11T12:46:07.101Z,49.96
2023-02-11T12:51:23.589Z,49.35
2023-02-11T12:56:38.078Z,49.79
2023-02-11T13:01:45.186Z,49.13
2023-02-11T13:06:53.444Z,50.00
2023-02-11T13:12:24.412Z,49.73
2023-02-11T13:17:34.332Z,49.03
2023-02-11T13:22:43.896Z,49.40
2023-02-11T13:27:58.987Z,49.58
2023-02-11T13:33:06.702Z,50.58
2023-02-11T13:38:25.386Z,50.60
2023-02-11T13:43:32.044Z,51.54
2023-02-11T13:48:38.354Z,49.94
2023-02-11T13:53:49.274Z,50.02
2023-02-11T13:58:54.197Z,50.49
2023-02-11T14:04:38.145Z,51.23
2023-02-11T14:09:42.007Z,53.06
2023-02-11T14:15:19.036Z,51.72
2023-02-11T14:20:45.402Z,53.11
2023-02-11T14:25:59.833Z,53.98
2023-02-11T14:31:11.283Z,55.13
2023-02-11T14:36:32.664Z,56.17
2023-02-11T14:41:41.501Z,57.27
2023-02-11T14:46:52.542Z,58.06
2023-02-11T14:51:59.559Z,58.13
2023-02-11T14:57:13.936Z,59.00
2023-02-11T15:02:26.397Z,58.78
2023-02-11T15:07:30.485Z,59.61
2023-02-11T15:12:33.970Z,59.24
2023-02-11T15:17:43.322Z,60.51
2023-02-11T15:22:47.531Z,60.58
2023-02-11T15:27:53.153Z,61.85
2023-02-11T15:33:00.328Z,62.32
2023-02-11T15:38:05.996Z,62.63
2023-02-11T15:43:11.722Z,62.74
2023-02-11T15:48:20.373Z,62.38
2023-02-11T15:53:27.212Z,62.78
2023-02-11T15:58:37.970Z,62.92
2023-02-11T16:03:44.384Z,63.14
2023-02-11T16:09:02.585Z,63.53
2023-02-11T16:14:24.624Z,63.53
2023-02-11T16:19:31.809Z,64.12
2023-02-11T16:24:36.896Z,64.61
2023-02-11T16:29:40.666Z,65.62
2023-02-11T16:34:45.619Z,66.52
2023-02-11T16:39:49.322Z,66.96
2023-02-11T16:44:52.795Z,66.58
2023-02-11T16:49:58.269Z,66.55
2023-02-11T16:55:02.172Z,66.67
2023-02-11T17:00:07.801Z,67.40
2023-02-11T17:05:20.046Z,67.66
2023-02-11T17:10:27.109Z,67.21
2023-02-11T17:15:30.471Z,66.42
2023-02-11T17:20:35.313Z,66.55
2023-02-11T17:25:39.130Z,66.72
2023-02-11T17:30:44.194Z,66.67
2023-02-11T17:35:49.213Z,66.85
2023-02-11T17:40:59.945Z,66.88
2023-02-11T17:46:07.782Z,66.92
2023-02-11T17:51:24.206Z,67.61
2023-02-11T17:56:28.128Z,67.63
2023-02-11T18:01:33.526Z,68.51
2023-02-11T18:06:38.572Z,69.00
2023-02-11T18:11:42.551Z,69.46
2023-02-11T18:16:47.592Z,70.00
2023-02-11T18:21:53.064Z,70.35
2023-02-11T18:26:56.534Z,70.30
2023-02-11T18:32:02.583Z,69.88
2023-02-11T18:37:07.475Z,69.56
2023-02-11T18:42:16.871Z,69.80
2023-02-11T18:47:23.030Z,69.75
2023-02-11T18:52:31.442Z,69.80
2023-02-11T18:57:35.242Z,69.80
2023-02-11T19:02:39.045Z,69.98
2023-02-11T19:07:43.960Z,69.49
2023-02-11T19:12:47.399Z,69.67
2023-02-11T19:17:50.953Z,69.45
2023-02-11T19:22:55.755Z,68.75
2023-02-11T19:27:59.184Z,68.53
2023-02-11T19:33:02.597Z,68.41
2023-02-11T19:38:08.622Z,67.74
2023-02-11T19:43:12.555Z,68.19
2023-02-11T19:48:15.999Z,68.23
2023-02-11T19:53:21.191Z,68.65
2023-02-11T19:58:24.710Z,69.25
2023-02-11T20:03:28.469Z,69.46
2023-02-11T20:08:33.668Z,69.58
2023-02-11T20:13:37.866Z,69.76
2023-02-11T20:18:41.972Z,69.04
2023-02-11T20:23:47.441Z,69.71
2023-02-11T20:28:52.443Z,69.17
2023-02-11T20:33:56.522Z,69.61
2023-02-11T20:39:01.968Z,68.77
2023-02-11T20:44:08.357Z,68.95
2023-02-11T20:49:13.013Z,68.81
2023-02-11T20:54:19.881Z,68.29
2023-02-11T20:59:23.420Z,67.56
2023-02-11T21:04:29.601Z,67.14
2023-02-11T21:09:34.853Z,66.95
2023-02-11T21:14:38.273Z,66.92
2023-02-11T21:19:43.417Z,66.56
2023-02-11T21:24:48.204Z,66.69
2023-02-11T21:29:54.516Z,66.67
2023-02-11T21:35:00.614Z,67.50
2023-02-11T21:40:10.347Z,67.21
2023-02-11T21:45:14.186Z,67.08
2023-02-11T21:50:19.282Z,66.94
2023-02-11T21:55:24.432Z,66.00
2023-02-11T22:00:28.236Z,66.49
2023-02-11T22:05:31.942Z,66.36
2023-02-11T22:10:36.724Z,65.93
2023-02-11T22:15:40.192Z,64.80
2023-02-11T22:20:43.592Z,65.32
2023-02-11T22:25:48.401Z,65.56
2023-02-11T22:30:55.494Z,65.10
2023-02-11T22:36:03.128Z,65.69
2023-02-11T22:41:10.754Z,66.00
2023-02-11T22:46:16.554Z,65.78
2023-02-11T22:51:22.367Z,66.28
2023-02-11T22:56:28.704Z,65.66
2023-02-11T23:01:32.944Z,66.46
2023-02-11T23:06:36.644Z,66.02
2023-02-11T23:11:41.992Z,65.69
2023-02-11T23:16:45.446Z,66.09
2023-02-11T23:21:52.706Z,65.98
2023-02-11T23:26:57.472Z,65.87
2023-02-11T23:32:00.877Z,66.87
2023-02-11T23:37:04.291Z,67.24
2023-02-11T23:42:09.227Z,67.51
2023-02-11T23:47:12.927Z,67.52
2023-02-11T23:52:16.584Z,67.46
2023-02-11T23:57:22.017Z,67.43
